Pagina principală
METAR-TAF:

METAR-TAF

Aeroporturi :

York Municipal Airport

York, Nebraska, Statele Unite ale Americii

Latitudine: 40-53-48N, longitudine: 097-37-22W, elevație: 509 m

Observații meteo curente

Raportul a fost făcut în urmă cu 24 de minute, la 01:15 UTC
Vânt 9 kt de la Nord-vest cu rafale de până la 14 kt
Temperatură 14°C
Umiditate 82%
Presiune 1009 hPa
Vizibilitate: 16.1 km
Nori puțini la o înălțime de 3500 picior
Nori fragmentați la o înălțime de 4500 picior

METAR: KJYR 220115Z AUTO 32009G14KT 10SM FEW035 BKN045 14/11 A2979 RMK AO2

Ora: 20:39 (01:39 UTC)


TAF: lipsă

Observații și prognoze meteo pentru peste 4.000 de aeroporturi (rapoarte METAR și TAF).

Stațiile disponibile sunt reprezentate pe hartă prin puncte galbene și roșii.

Țineți indicatorul mouse-ului pe punctul dorit pentru a vedea denumirea stației.

Apoi, faceți clic pentru a vedea observațiile și prognozele meteorologice.

Pentru a schimba harta: Pentru mărire, faceți clic pe butoanele verzi cu cruce neagră; pentru micșorare, pe butonul verde cu o liniuță; pentru hărți învecinate, pe săgețile verzi.


METAR-TAF: